This is the latest recevied weather packets stored in our database for station/object N2PUI. If no packets are shown the sender has not sent any weather packets the latest 10 day(s).
| Time | Temp. | Humidity | Pressure | Rain* | Wind** | Luminosity | Snow |
|---|---|---|---|---|---|---|---|
| 1777652713 | 11.11° C | 51% | 1012.7 hPa | 0 mm | - | 292 W/m² | - |
| 1777652411 | 11.11° C | 51% | 1012.8 hPa | 0 mm | - | 373 W/m² | - |
| 1777652108 | 11.11° C | 52% | 1012.8 hPa | 0 mm | - | 272 W/m² | - |
| 1777651804 | 11.11° C | 51% | 1012.8 hPa | 0 mm | - | 463 W/m² | - |
| 1777651502 | 11.11° C | 49% | 1013 hPa | 0 mm | - | 459 W/m² | - |
| 1777651198 | 10.56° C | 51% | 1012.9 hPa | 0 mm | - | 281 W/m² | - |
| 1777650895 | 10.56° C | 53% | 1012.8 hPa | 0 mm | - | 246 W/m² | - |
| 1777650591 | 10.56° C | 53% | 1012.9 hPa | 0 mm | - | 269 W/m² | - |
| 1777650289 | 11.67° C | 50% | 1013.1 hPa | 0 mm | - | 393 W/m² | - |
| 1777649986 | 11.11° C | 52% | 1013 hPa | 0 mm | - | 478 W/m² | - |
| 1777649684 | 11.11° C | 53% | 1013.3 hPa | 0 mm | - | 304 W/m² | - |
| 1777649379 | 11.67° C | 50% | 1013.4 hPa | 0 mm | - | 252 W/m² | - |
| 1777649077 | 10.56° C | 53% | 1013.1 hPa | 0 mm | - | 1012 W/m² | - |
| 1777648774 | 11.67° C | 51% | 1013.4 hPa | 0 mm | - | 588 W/m² | - |
| 1777648471 | 11.11° C | 53% | 1013.4 hPa | 0 mm | - | 646 W/m² | - |
| 1777648167 | 11.11° C | 55% | 1013.1 hPa | 0 mm | - | 470 W/m² | - |
| 1777647862 | 10° C | 58% | 1013.4 hPa | 0 mm | - | 288 W/m² | - |
| 1777647559 | 10° C | 58% | 1013.4 hPa | 0 mm | - | 207 W/m² | - |
| 1777647256 | 9.44° C | 58% | 1013.4 hPa | 0 mm | - | 224 W/m² | - |
| 1777646954 | 9.44° C | 59% | 1013.4 hPa | 0 mm | - | 233 W/m² | - |
| 1777646649 | 10° C | 59% | 1013.1 hPa | 0 mm | - | 144 W/m² | - |
| 1777646345 | 10° C | 60% | 1013.3 hPa | 0 mm | - | 225 W/m² | - |
| 1777646041 | 10° C | 60% | 1013.6 hPa | 0 mm | - | 248 W/m² | - |
| 1777645738 | 8.89° C | 62% | 1013.5 hPa | 0 mm | - | 258 W/m² | - |
| 1777645435 | 8.89° C | 63% | 1013.6 hPa | 0 mm | - | 290 W/m² | - |
* Rain latest hour (hover to see other rain measurements)
** Current wind speed in m/s (hover to see current wind gust speed)